Time;durP1;ratioP1;P1;durP2;ratioP2;P2;SDS_P1;SDS_P2;PMS_P1;PMS_P2;Temp;Humidity;BMP_temperature;BMP_pressure;BME280_temperature;BME280_humidity;BME280_pressure;Samples;Min_cycle;Max_cycle;Signal;HPM_P1;HPM_P2
2022/02/06 00:01:37;;;;;;;;;;;;;;;;;;4994764;28;19922;-54
2022/02/06 00:04:03;;;;;;;;;;;;;;;;;;5003039;28;19932;-57
2022/02/06 00:06:33;;;;;;;;;;;;;;;;;;4995537;28;19994;-56
2022/02/06 00:08:59;;;;;;;;;;;;;;;;;;4995970;28;20374;-57
2022/02/06 00:11:24;;;;;;;;;;;;;;;;;;4993123;28;20004;-56
2022/02/06 00:13:50;;;;;;;;;;;;;;;;;;4996549;28;19976;-56
2022/02/06 00:16:15;;;;;;;;;;;;;;;;;;5015647;28;19955;-55
2022/02/06 00:18:42;;;;;;;;;;;;;;;;;;4995412;28;19961;-56
2022/02/06 00:21:12;;;;;;;;;;;;;;;;;;4998957;28;19988;-58
2022/02/06 00:23:38;;;;;;;;;;;;;;;;;;4998413;28;20016;-60
2022/02/06 00:26:14;;;;;;;;;;;;;;;;;;4999212;28;19983;-58
2022/02/06 00:28:46;;;;;;;;;;;;;;;;;;4998161;28;19925;-57
2022/02/06 00:31:17;;;;;;;;;;;;;;;;;;4997647;28;19925;-56
2022/02/06 00:39:11;;;;;;;;;;;;;;;;;;4997373;28;19968;-57
2022/02/06 00:41:36;;;;;;;;;;;;;;;;;;4997896;28;20739;-56
2022/02/06 00:44:03;;;;;;;;;;;;;;;;;;4999168;28;19984;-57
2022/02/06 00:46:28;;;;;;;;;;;;;;;;;;4997546;28;19933;-57
2022/02/06 00:48:57;;;;;;;;;;;;;;;;;;4998907;28;19921;-58
2022/02/06 00:51:43;;;;;;;;;;;;;;;;;;4997897;28;19925;-57
2022/02/06 00:54:08;;;;;;;;;;;;;;;;;;4999846;28;20008;-58
2022/02/06 00:56:34;;;;;;;;;;;;;;;;;;4998774;28;20123;-59
2022/02/06 00:58:59;;;;;;;;;;;;;;;;;;4998669;28;19984;-59
2022/02/06 01:01:25;;;;;;;;;;;;;;;;;;4997410;28;19926;-58
2022/02/06 01:03:52;;;;;;;;;;;;;;;;;;4998761;28;20004;-58
2022/02/06 01:06:18;;;;;;;;;;;;;;;;;;4998161;28;19929;-58
2022/02/06 01:08:44;;;;;;;;;;;;;;;;;;4998122;28;19995;-58
2022/02/06 01:11:11;;;;;;;;;;;;;;;;;;4989624;28;20012;-58
2022/02/06 01:16:37;;;;;;;;;;;;;;;;;;4999143;28;19921;-58
2022/02/06 01:19:07;;;;;;;;;;;;;;;;;;4997277;28;19921;-58
2022/02/06 01:21:44;;;;;;;;;;;;;;;;;;4997693;28;19926;-57
2022/02/06 01:24:21;;;;;;;;;;;;;;;;;;4998200;28;19979;-58
2022/02/06 01:26:52;;;;;;;;;;;;;;;;;;4998146;28;19929;-55
2022/02/06 01:32:10;;;;;;;;;;;;;;;;;;4997190;28;19924;-56
2022/02/06 01:34:57;;;;;;;;;;;;;;;;;;4997603;28;19922;-57
2022/02/06 01:37:38;;;;;;;;;;;;;;;;;;4998258;28;19932;-57
2022/02/06 01:40:13;;;;;;;;;;;;;;;;;;4996494;28;19989;-57
2022/02/06 01:42:44;;;;;;;;;;;;;;;;;;4997024;28;19983;-57
2022/02/06 02:07:21;;;;;;;;;;;;;;;;;;4995623;28;20397;-57
2022/02/06 02:20:57;;;;;;;;;;;;;;;;;;4995939;28;20399;-57
2022/02/06 02:31:41;;;;;;;;;;;;;;;;;;4996434;28;19961;-56
2022/02/06 02:47:15;;;;;;;;;;;;;;;;;;4996592;28;19928;-56
2022/02/06 02:49:46;;;;;;;;;;;;;;;;;;4994959;28;19925;-55
2022/02/06 02:52:21;;;;;;;;;;;;;;;;;;4996708;28;19929;-53
2022/02/06 02:54:51;;;;;;;;;;;;;;;;;;4997079;28;19936;-57
2022/02/06 02:57:24;;;;;;;;;;;;;;;;;;4997209;28;19921;-55
2022/02/06 03:00:07;;;;;;;;;;;;;;;;;;4995351;28;19941;-55
2022/02/06 03:02:32;;;;;;;;;;;;;;;;;;4993757;28;19926;-55
2022/02/06 03:04:59;;;;;;;;;;;;;;;;;;4977927;28;19930;-54
2022/02/06 03:07:25;;;;;;;;;;;;;;;;;;4975763;28;19928;-54
2022/02/06 03:09:50;;;;;;;;;;;;;;;;;;4975656;28;19921;-55
2022/02/06 03:12:21;;;;;;;;;;;;;;;;;;4975465;28;19944;-55
2022/02/06 03:14:54;;;;;;;;;;;;;;;;;;4983187;28;19922;-56
2022/02/06 03:17:33;;;;;;;;;;;;;;;;;;4976278;28;19928;-56
2022/02/06 03:20:06;;;;;;;;;;;;;;;;;;4991938;28;19928;-56
2022/02/06 03:22:36;;;;;;;;;;;;;;;;;;4976780;28;19969;-56
2022/02/06 03:25:07;;;;;;;;;;;;;;;;;;4977726;28;19929;-53
2022/02/06 03:27:32;;;;;;;;;;;;;;;;;;4975788;28;19922;-58
2022/02/06 03:29:58;;;;;;;;;;;;;;;;;;4992874;28;19921;-59
2022/02/06 03:32:23;;;;;;;;;;;;;;;;;;4980416;28;20631;-56
2022/02/06 03:34:48;;;;;;;;;;;;;;;;;;4979956;28;19921;-59
2022/02/06 03:37:14;;;;;;;;;;;;;;;;;;4985425;28;19944;-57
2022/02/06 03:39:41;;;;;;;;;;;;;;;;;;5011600;28;19926;-58
2022/02/06 03:42:11;;;;;;;;;;;;;;;;;;4998405;28;19926;-59
2022/02/06 03:47:09;;;;;;;;;;;;;;;;;;4996270;28;19924;-59
2022/02/06 03:52:19;;;;;;;;;;;;;;;;;;4996230;28;20459;-58
2022/02/06 03:54:45;;;;;;;;;;;;;;;;;;4998073;28;19979;-56
2022/02/06 03:57:10;;;;;;;;;;;;;;;;;;5000094;28;19925;-58
2022/02/06 03:59:36;;;;;;;;;;;;;;;;;;4999344;28;19993;-57
2022/02/06 04:02:01;;;;;;;;;;;;;;;;;;5000855;28;19929;-55
2022/02/06 04:04:27;;;;;;;;;;;;;;;;;;5000321;28;20582;-58
2022/02/06 04:06:53;;;;;;;;;;;;;;;;;;5000482;28;20108;-58
2022/02/06 04:09:29;;;;;;;;;;;;;;;;;;4997835;28;19967;-59
2022/02/06 04:11:57;;;;;;;;;;;;;;;;;;4999720;28;19941;-56
2022/02/06 04:14:27;;;;;;;;;;;;;;;;;;4999593;28;19925;-59
2022/02/06 04:16:55;;;;;;;;;;;;;;;;;;4999518;28;19927;-57
2022/02/06 04:19:25;;;;;;;;;;;;;;;;;;4998348;28;20048;-57
2022/02/06 04:21:51;;;;;;;;;;;;;;;;;;5001155;28;21756;-56
2022/02/06 04:24:17;;;;;;;;;;;;;;;;;;4999962;28;19975;-58
2022/02/06 04:26:42;;;;;;;;;;;;;;;;;;5001780;28;19993;-58
2022/02/06 04:29:08;;;;;;;;;;;;;;;;;;5001116;28;19984;-57
2022/02/06 04:31:33;;;;;;;;;;;;;;;;;;5008467;28;20052;-57
2022/02/06 04:33:59;;;;;;;;;;;;;;;;;;5006762;28;19925;-57
2022/02/06 04:36:31;;;;;;;;;;;;;;;;;;4994688;28;20008;-57
2022/02/06 04:39:25;;;;;;;;;;;;;;;;;;4999186;28;19921;-56
2022/02/06 04:55:16;;;;;;;;;;;;;;;;;;4998315;28;19926;-59
2022/02/06 05:12:12;;;;;;;;;;;;;;;;;;4997675;28;19948;-57
2022/02/06 05:25:18;;;;;;;;;;;;;;;;;;5002250;28;19941;-56
2022/02/06 05:28:09;;;;;;;;;;;;;;;;;;5006296;28;20017;-57
2022/02/06 05:30:50;;;;;;;;;;;;;;;;;;5003272;28;19922;-58
2022/02/06 05:33:16;;;;;;;;;;;;;;;;;;5000279;28;19925;-56
2022/02/06 05:35:41;;;;;;;;;;;;;;;;;;4998360;28;20456;-57
2022/02/06 05:38:06;;;;;;;;;;;;;;;;;;4997421;28;19925;-56
2022/02/06 05:40:32;;;;;;;;;;;;;;;;;;4997266;28;19921;-56
2022/02/06 05:42:57;;;;;;;;;;;;;;;;;;4998851;28;20880;-57
2022/02/06 05:45:23;;;;;;;;;;;;;;;;;;4998427;28;19968;-57
2022/02/06 05:47:48;;;;;;;;;;;;;;;;;;4997852;28;19971;-56
2022/02/06 05:50:14;;;;;;;;;;;;;;;;;;4997689;28;19991;-59
2022/02/06 05:52:39;;;;;;;;;;;;;;;;;;4996603;28;20515;-57
2022/02/06 05:55:05;;;;;;;;;;;;;;;;;;4997851;28;19922;-57
2022/02/06 05:57:30;;;;;;;;;;;;;;;;;;4997160;28;20544;-58
2022/02/06 05:59:55;;;;;;;;;;;;;;;;;;4997768;28;19926;-58
2022/02/06 06:02:21;;;;;;;;;;;;;;;;;;5005915;28;20040;-57
2022/02/06 06:04:46;;;;;;;;;;;;;;;;;;4997533;28;19925;-58
2022/02/06 06:07:12;;;;;;;;;;;;;;;;;;4996905;28;19921;-59
2022/02/06 06:09:37;;;;;;;;;;;;;;;;;;4996130;28;19961;-58
2022/02/06 06:12:03;;;;;;;;;;;;;;;;;;4998136;28;19918;-59
2022/02/06 06:14:32;;;;;;;;;;;;;;;;;;4995515;28;19947;-58
2022/02/06 06:16:58;;;;;;;;;;;;;;;;;;4996248;28;19925;-59
2022/02/06 06:19:23;;;;;;;;;;;;;;;;;;4994670;28;19951;-57
2022/02/06 06:21:54;;;;;;;;;;;;;;;;;;4996497;28;20287;-57
2022/02/06 06:24:21;;;;;;;;;;;;;;;;;;4997685;28;19978;-58
2022/02/06 06:26:47;;;;;;;;;;;;;;;;;;4997104;28;20020;-57
2022/02/06 06:29:12;;;;;;;;;;;;;;;;;;4996976;28;19932;-57
2022/02/06 06:31:37;;;;;;;;;;;;;;;;;;4997055;28;19943;-58
2022/02/06 06:34:03;;;;;;;;;;;;;;;;;;4996644;28;20287;-57
2022/02/06 06:36:31;;;;;;;;;;;;;;;;;;4995938;28;19921;-57
2022/02/06 06:38:56;;;;;;;;;;;;;;;;;;4996905;28;20044;-57
2022/02/06 06:41:22;;;;;;;;;;;;;;;;;;4995809;28;19922;-56
2022/02/06 06:43:47;;;;;;;;;;;;;;;;;;4997790;28;19922;-57
2022/02/06 06:46:13;;;;;;;;;;;;;;;;;;4996205;28;19940;-58
2022/02/06 06:48:38;;;;;;;;;;;;;;;;;;4995863;28;19927;-57
2022/02/06 06:51:04;;;;;;;;;;;;;;;;;;4996240;28;19925;-58
2022/02/06 06:53:30;;;;;;;;;;;;;;;;;;4997164;28;19965;-58
2022/02/06 06:56:00;;;;;;;;;;;;;;;;;;4996832;28;19926;-57
2022/02/06 06:58:34;;;;;;;;;;;;;;;;;;4997001;28;20001;-58
2022/02/06 07:03:25;;;;;;;;;;;;;;;;;;4996834;28;19945;-55
2022/02/06 07:05:50;;;;;;;;;;;;;;;;;;4997733;28;19940;-59
2022/02/06 07:08:16;;;;;;;;;;;;;;;;;;4997746;28;19922;-59
2022/02/06 07:10:42;;;;;;;;;;;;;;;;;;4989148;28;19921;-58
2022/02/06 07:13:07;;;;;;;;;;;;;;;;;;4996931;28;20578;-59
2022/02/06 07:15:33;;;;;;;;;;;;;;;;;;4995026;28;20291;-59
2022/02/06 07:17:58;;;;;;;;;;;;;;;;;;4995626;28;19921;-59
2022/02/06 07:20:24;;;;;;;;;;;;;;;;;;4995699;28;19935;-58
2022/02/06 07:22:50;;;;;;;;;;;;;;;;;;4997364;28;20004;-57
2022/02/06 07:25:15;;;;;;;;;;;;;;;;;;4995905;28;20425;-58
2022/02/06 07:27:45;;;;;;;;;;;;;;;;;;5002848;28;20449;-58
2022/02/06 07:30:11;;;;;;;;;;;;;;;;;;5000060;28;19958;-58
2022/02/06 07:32:37;;;;;;;;;;;;;;;;;;4999565;28;19926;-58
2022/02/06 07:35:03;;;;;;;;;;;;;;;;;;5001653;28;20629;-57
2022/02/06 07:37:28;;;;;;;;;;;;;;;;;;4998759;28;19926;-57
2022/02/06 07:39:54;;;;;;;;;;;;;;;;;;5001457;28;19947;-57
2022/02/06 07:42:20;;;;;;;;;;;;;;;;;;5009097;28;19984;-58
2022/02/06 07:44:47;;;;;;;;;;;;;;;;;;5002781;28;19933;-57
2022/02/06 07:47:19;;;;;;;;;;;;;;;;;;5008600;28;19925;-58
2022/02/06 07:49:46;;;;;;;;;;;;;;;;;;5011663;28;20001;-56
2022/02/06 07:52:11;;;;;;;;;;;;;;;;;;5003060;28;20386;-57
2022/02/06 07:54:37;;;;;;;;;;;;;;;;;;4999589;28;19932;-57
2022/02/06 07:57:04;;;;;;;;;;;;;;;;;;4999885;28;20452;-57
2022/02/06 07:59:30;;;;;;;;;;;;;;;;;;4997861;28;20675;-58
2022/02/06 08:01:55;;;;;;;;;;;;;;;;;;5000304;28;19926;-58
2022/02/06 08:04:20;;;;;;;;;;;;;;;;;;4998939;28;20391;-58
2022/02/06 08:06:46;;;;;;;;;;;;;;;;;;5000238;28;19935;-57
2022/02/06 08:09:11;;;;;;;;;;;;;;;;;;5000557;28;19925;-57
2022/02/06 08:11:43;;;;;;;;;;;;;;;;;;4999410;28;19925;-58
2022/02/06 08:14:09;;;;;;;;;;;;;;;;;;4999224;28;20295;-58
2022/02/06 08:16:34;;;;;;;;;;;;;;;;;;4998204;28;20355;-58
2022/02/06 08:19:00;;;;;;;;;;;;;;;;;;5000318;28;20407;-57
2022/02/06 08:21:26;;;;;;;;;;;;;;;;;;4998703;28;19953;-58
2022/02/06 08:23:51;;;;;;;;;;;;;;;;;;4999143;28;19991;-57
2022/02/06 08:26:17;;;;;;;;;;;;;;;;;;4999956;28;19980;-58
2022/02/06 08:28:42;;;;;;;;;;;;;;;;;;4998660;28;19926;-57
2022/02/06 08:31:08;;;;;;;;;;;;;;;;;;5007821;28;19929;-58
2022/02/06 08:33:33;;;;;;;;;;;;;;;;;;4999253;28;19925;-56
2022/02/06 08:35:59;;;;;;;;;;;;;;;;;;4999763;28;20336;-56
2022/02/06 08:38:24;;;;;;;;;;;;;;;;;;4999166;28;19968;-57
2022/02/06 08:40:50;;;;;;;;;;;;;;;;;;4998171;28;20071;-58
2022/02/06 08:43:15;;;;;;;;;;;;;;;;;;4998444;28;19933;-57
2022/02/06 08:45:41;;;;;;;;;;;;;;;;;;5005635;28;19986;-56
2022/02/06 08:48:06;;;;;;;;;;;;;;;;;;4999844;28;20241;-58
2022/02/06 08:50:32;;;;;;;;;;;;;;;;;;4998044;28;20444;-57
2022/02/06 08:52:59;;;;;;;;;;;;;;;;;;4999234;28;20008;-58
2022/02/06 08:55:24;;;;;;;;;;;;;;;;;;5006572;28;19920;-58
2022/02/06 08:57:51;;;;;;;;;;;;;;;;;;5012291;28;19925;-58
2022/02/06 09:00:16;;;;;;;;;;;;;;;;;;4998911;28;20008;-57
2022/02/06 09:02:41;;;;;;;;;;;;;;;;;;4998957;28;19934;-58
2022/02/06 09:05:07;;;;;;;;;;;;;;;;;;4999629;28;20342;-58
2022/02/06 09:07:32;;;;;;;;;;;;;;;;;;4998535;28;20682;-58
2022/02/06 09:10:01;;;;;;;;;;;;;;;;;;4999654;28;19921;-58
2022/02/06 09:12:27;;;;;;;;;;;;;;;;;;4998673;28;19925;-59
2022/02/06 09:14:52;;;;;;;;;;;;;;;;;;4998803;28;19922;-59
2022/02/06 09:17:18;;;;;;;;;;;;;;;;;;4998339;28;19936;-59
2022/02/06 09:19:43;;;;;;;;;;;;;;;;;;4998893;28;19932;-59
2022/02/06 09:22:09;;;;;;;;;;;;;;;;;;4999313;28;19921;-58
2022/02/06 09:24:34;;;;;;;;;;;;;;;;;;4998707;28;20000;-58
2022/02/06 09:27:00;;;;;;;;;;;;;;;;;;4998458;28;20078;-57
2022/02/06 09:29:25;;;;;;;;;;;;;;;;;;4997655;28;19929;-58
2022/02/06 09:31:52;;;;;;;;;;;;;;;;;;4998061;28;20425;-58
2022/02/06 09:36:43;;;;;;;;;;;;;;;;;;4998510;28;20353;-59
2022/02/06 09:39:09;;;;;;;;;;;;;;;;;;4998817;28;19965;-59
2022/02/06 09:41:34;;;;;;;;;;;;;;;;;;4997915;28;19921;-57
2022/02/06 09:44:00;;;;;;;;;;;;;;;;;;4998305;28;19926;-58
2022/02/06 09:46:25;;;;;;;;;;;;;;;;;;4997846;28;19976;-59
2022/02/06 09:48:51;;;;;;;;;;;;;;;;;;4998040;28;20319;-58
2022/02/06 09:51:16;;;;;;;;;;;;;;;;;;4997194;28;19921;-56
2022/02/06 09:53:42;;;;;;;;;;;;;;;;;;4997432;28;19921;-58
2022/02/06 09:56:09;;;;;;;;;;;;;;;;;;4997894;28;19926;-56
2022/02/06 10:01:02;;;;;;;;;;;;;;;;;;4998433;28;19965;-57
2022/02/06 10:03:28;;;;;;;;;;;;;;;;;;4991627;28;20411;-59
2022/02/06 10:05:53;;;;;;;;;;;;;;;;;;4996999;28;19929;-58
2022/02/06 10:08:24;;;;;;;;;;;;;;;;;;4996535;28;19971;-58
2022/02/06 10:10:49;;;;;;;;;;;;;;;;;;4997296;28;19921;-58
2022/02/06 10:13:15;;;;;;;;;;;;;;;;;;4997895;28;19972;-58
2022/02/06 10:15:40;;;;;;;;;;;;;;;;;;4997508;28;20517;-54
2022/02/06 10:18:06;;;;;;;;;;;;;;;;;;4996528;28;19932;-58
2022/02/06 10:20:39;;;;;;;;;;;;;;;;;;4995852;28;19923;-58
2022/02/06 10:23:08;;;;;;;;;;;;;;;;;;4997360;28;19967;-58
2022/02/06 10:25:34;;;;;;;;;;;;;;;;;;4995742;28;19929;-58
2022/02/06 10:28:02;;;;;;;;;;;;;;;;;;4997869;28;20298;-58
2022/02/06 10:30:36;;;;;;;;;;;;;;;;;;4996147;28;19921;-59
2022/02/06 10:33:02;;;;;;;;;;;;;;;;;;4997498;28;19922;-59
2022/02/06 10:35:27;;;;;;;;;;;;;;;;;;4996692;28;19960;-58
2022/02/06 10:37:53;;;;;;;;;;;;;;;;;;4996544;28;20045;-56
2022/02/06 10:40:18;;;;;;;;;;;;;;;;;;4995444;28;19952;-58
2022/02/06 10:42:44;;;;;;;;;;;;;;;;;;4997321;28;20008;-57
2022/02/06 10:45:09;;;;;;;;;;;;;;;;;;4997470;28;19969;-58
2022/02/06 10:47:35;;;;;;;;;;;;;;;;;;4995938;28;20082;-58
2022/02/06 10:50:00;;;;;;;;;;;;;;;;;;4995880;28;19926;-58
2022/02/06 10:52:26;;;;;;;;;;;;;;;;;;4995189;28;20334;-59
2022/02/06 10:54:56;;;;;;;;;;;;;;;;;;4995993;28;20204;-58
2022/02/06 10:57:23;;;;;;;;;;;;;;;;;;4997781;28;19929;-58
2022/02/06 10:59:53;;;;;;;;;;;;;;;;;;5002405;28;19925;-58
2022/02/06 11:02:18;;;;;;;;;;;;;;;;;;4995832;28;20557;-57
2022/02/06 11:04:44;;;;;;;;;;;;;;;;;;4996786;28;19925;-58
2022/02/06 11:07:11;;;;;;;;;;;;;;;;;;4996059;28;19976;-58
2022/02/06 11:09:37;;;;;;;;;;;;;;;;;;4995317;28;21787;-58
2022/02/06 11:12:03;;;;;;;;;;;;;;;;;;4997605;28;20012;-58
2022/02/06 11:14:31;;;;;;;;;;;;;;;;;;4995754;28;19968;-58
2022/02/06 11:16:57;;;;;;;;;;;;;;;;;;4996307;28;19932;-58
2022/02/06 11:19:22;;;;;;;;;;;;;;;;;;4995220;28;20054;-59
2022/02/06 11:21:48;;;;;;;;;;;;;;;;;;4995602;28;19926;-57
2022/02/06 11:24:13;;;;;;;;;;;;;;;;;;4995809;28;19956;-58
2022/02/06 11:26:43;;;;;;;;;;;;;;;;;;5010559;28;26126;-59
2022/02/06 11:29:10;;;;;;;;;;;;;;;;;;4993340;28;19925;-58
2022/02/06 11:31:35;;;;;;;;;;;;;;;;;;4996987;28;19950;-59
2022/02/06 11:34:01;;;;;;;;;;;;;;;;;;4996750;28;20609;-58
2022/02/06 11:43:42;;;;;;;;;;;;;;;;;;4995692;28;20382;-59
2022/02/06 11:44:39;;;;;;;;;;;;;;;;;;4995422;28;20413;-58
2022/02/06 11:47:05;;;;;;;;;;;;;;;;;;4996689;28;19930;-58
2022/02/06 11:49:30;;;;;;;;;;;;;;;;;;4988343;28;19961;-59
2022/02/06 11:51:56;;;;;;;;;;;;;;;;;;4997385;28;19925;-59
2022/02/06 11:54:22;;;;;;;;;;;;;;;;;;4997352;28;20342;-60
2022/02/06 11:56:49;;;;;;;;;;;;;;;;;;5000136;28;19922;-58
2022/02/06 11:59:15;;;;;;;;;;;;;;;;;;5002880;28;19926;-58
2022/02/06 12:01:42;;;;;;;;;;;;;;;;;;4998596;28;20571;-59
2022/02/06 12:04:07;;;;;;;;;;;;;;;;;;4996921;28;19932;-59
2022/02/06 12:06:33;;;;;;;;;;;;;;;;;;4996472;28;19930;-59
2022/02/06 12:08:58;;;;;;;;;;;;;;;;;;4997091;28;19926;-60
2022/02/06 12:11:23;;;;;;;;;;;;;;;;;;5017843;28;20143;-59
2022/02/06 12:13:49;;;;;;;;;;;;;;;;;;4990781;28;19932;-59
2022/02/06 12:16:14;;;;;;;;;;;;;;;;;;4993607;28;19976;-60
2022/02/06 12:18:40;;;;;;;;;;;;;;;;;;4996788;28;19951;-58
2022/02/06 12:21:05;;;;;;;;;;;;;;;;;;5009860;28;20293;-59
2022/02/06 12:23:31;;;;;;;;;;;;;;;;;;4999224;28;20539;-58
2022/02/06 12:25:58;;;;;;;;;;;;;;;;;;4999430;28;19941;-59
2022/02/06 12:28:26;;;;;;;;;;;;;;;;;;4998236;28;19925;-59
2022/02/06 12:30:51;;;;;;;;;;;;;;;;;;4999684;28;19925;-59
2022/02/06 12:33:19;;;;;;;;;;;;;;;;;;4998967;28;19930;-59
2022/02/06 12:38:29;;;;;;;;;;;;;;;;;;4997535;28;20452;-58
2022/02/06 12:40:54;;;;;;;;;;;;;;;;;;4998963;28;20513;-59
2022/02/06 12:43:27;;;;;;;;;;;;;;;;;;4996354;28;20500;-60
2022/02/06 12:45:53;;;;;;;;;;;;;;;;;;4999563;28;19929;-58
2022/02/06 12:48:21;;;;;;;;;;;;;;;;;;4996742;28;20344;-59
2022/02/06 12:50:47;;;;;;;;;;;;;;;;;;4998796;28;19955;-59
2022/02/06 12:53:12;;;;;;;;;;;;;;;;;;4999677;28;21604;-58
2022/02/06 12:55:37;;;;;;;;;;;;;;;;;;4998281;28;19922;-60
2022/02/06 12:58:06;;;;;;;;;;;;;;;;;;4999860;28;20353;-60
2022/02/06 13:00:34;;;;;;;;;;;;;;;;;;4991923;28;19941;-60
2022/02/06 13:02:59;;;;;;;;;;;;;;;;;;4993720;28;19922;-59
2022/02/06 13:05:24;;;;;;;;;;;;;;;;;;4992158;28;19956;-60
2022/02/06 13:07:50;;;;;;;;;;;;;;;;;;4985706;28;19930;-59
2022/02/06 13:10:15;;;;;;;;;;;;;;;;;;4991754;28;19933;-58
2022/02/06 13:12:50;;;;;;;;;;;;;;;;;;4992650;28;20271;-59
2022/02/06 13:18:04;;;;;;;;;;;;;;;;;;4991949;28;20011;-58
2022/02/06 13:20:40;;;;;;;;;;;;;;;;;;4990568;28;19925;-58
2022/02/06 13:23:15;;;;;;;;;;;;;;;;;;4992225;28;19926;-58
2022/02/06 13:33:19;;;;;;;;;;;;;;;;;;4991763;28;20407;-58
2022/02/06 13:35:57;;;;;;;;;;;;;;;;;;4993456;28;20140;-59
2022/02/06 13:38:23;;;;;;;;;;;;;;;;;;4991870;28;19929;-59
2022/02/06 13:40:50;;;;;;;;;;;;;;;;;;4992239;28;19969;-58
2022/02/06 13:43:19;;;;;;;;;;;;;;;;;;4992310;28;19932;-59
2022/02/06 13:45:44;;;;;;;;;;;;;;;;;;4982909;28;20318;-60
2022/02/06 13:48:10;;;;;;;;;;;;;;;;;;4991235;28;19929;-59
2022/02/06 13:50:42;;;;;;;;;;;;;;;;;;4991195;28;20366;-59
2022/02/06 13:53:07;;;;;;;;;;;;;;;;;;4991532;28;20358;-59
2022/02/06 13:55:33;;;;;;;;;;;;;;;;;;4990891;28;19925;-59
2022/02/06 13:57:58;;;;;;;;;;;;;;;;;;4992293;28;19926;-59
2022/02/06 14:00:23;;;;;;;;;;;;;;;;;;4991307;28;19922;-59
2022/02/06 14:02:49;;;;;;;;;;;;;;;;;;4993060;28;19952;-58
2022/02/06 14:05:17;;;;;;;;;;;;;;;;;;4992828;28;20398;-60
2022/02/06 14:07:42;;;;;;;;;;;;;;;;;;4985198;28;19921;-59
2022/02/06 14:10:14;;;;;;;;;;;;;;;;;;4993279;28;20530;-58
2022/02/06 14:12:40;;;;;;;;;;;;;;;;;;4992276;28;21416;-60
2022/02/06 14:15:05;;;;;;;;;;;;;;;;;;4993435;28;20016;-60
2022/02/06 14:17:31;;;;;;;;;;;;;;;;;;5000052;28;19925;-60
2022/02/06 14:19:57;;;;;;;;;;;;;;;;;;4993881;28;19930;-59
2022/02/06 14:22:23;;;;;;;;;;;;;;;;;;4993494;28;20033;-60
2022/02/06 14:24:48;;;;;;;;;;;;;;;;;;4992370;28;20409;-59
2022/02/06 14:27:15;;;;;;;;;;;;;;;;;;4990770;28;19934;-59
2022/02/06 14:29:41;;;;;;;;;;;;;;;;;;4990272;28;19929;-61
2022/02/06 14:32:07;;;;;;;;;;;;;;;;;;4996111;28;19920;-60
2022/02/06 14:34:32;;;;;;;;;;;;;;;;;;5010315;28;19926;-59
2022/02/06 14:36:58;;;;;;;;;;;;;;;;;;4991495;28;19968;-59
2022/02/06 14:39:31;;;;;;;;;;;;;;;;;;4990710;28;20864;-59
2022/02/06 14:42:00;;;;;;;;;;;;;;;;;;4990876;28;19925;-60
2022/02/06 14:44:26;;;;;;;;;;;;;;;;;;4990053;28;19921;-59
2022/02/06 14:46:51;;;;;;;;;;;;;;;;;;4991425;28;19944;-59
2022/02/06 14:49:18;;;;;;;;;;;;;;;;;;4982736;28;19922;-59
2022/02/06 14:51:44;;;;;;;;;;;;;;;;;;4991792;28;19922;-59
2022/02/06 14:54:10;;;;;;;;;;;;;;;;;;4991333;28;19931;-60
2022/02/06 14:56:36;;;;;;;;;;;;;;;;;;4989281;28;20080;-59
2022/02/06 14:59:01;;;;;;;;;;;;;;;;;;4990168;28;19926;-60
2022/02/06 15:01:27;;;;;;;;;;;;;;;;;;4991102;28;19928;-59
2022/02/06 15:03:52;;;;;;;;;;;;;;;;;;4991044;28;19921;-62
2022/02/06 15:06:18;;;;;;;;;;;;;;;;;;4990004;28;19975;-60
2022/02/06 15:08:43;;;;;;;;;;;;;;;;;;4990225;28;19933;-60
2022/02/06 15:11:09;;;;;;;;;;;;;;;;;;4990838;28;19928;-60
2022/02/06 15:13:35;;;;;;;;;;;;;;;;;;4990767;28;20536;-59
2022/02/06 15:16:06;;;;;;;;;;;;;;;;;;4991397;28;19921;-60
2022/02/06 15:18:37;;;;;;;;;;;;;;;;;;4992355;28;19932;-60
2022/02/06 15:21:02;;;;;;;;;;;;;;;;;;4986527;28;19925;-59
2022/02/06 15:23:28;;;;;;;;;;;;;;;;;;4990049;28;19925;-60
2022/02/06 15:25:54;;;;;;;;;;;;;;;;;;4990870;28;19936;-60
2022/02/06 15:28:19;;;;;;;;;;;;;;;;;;4989541;28;20329;-59
2022/02/06 15:30:45;;;;;;;;;;;;;;;;;;4983082;28;19922;-59
2022/02/06 15:33:10;;;;;;;;;;;;;;;;;;4992117;28;19925;-59
2022/02/06 15:35:36;;;;;;;;;;;;;;;;;;4990003;28;20331;-59
2022/02/06 15:38:03;;;;;;;;;;;;;;;;;;4990100;28;19984;-59
2022/02/06 15:40:29;;;;;;;;;;;;;;;;;;4990962;28;19922;-59
2022/02/06 15:42:54;;;;;;;;;;;;;;;;;;4984024;28;19979;-58
2022/02/06 15:45:19;;;;;;;;;;;;;;;;;;4989532;28;19928;-58
2022/02/06 15:47:45;;;;;;;;;;;;;;;;;;4991024;28;19932;-59
2022/02/06 15:50:11;;;;;;;;;;;;;;;;;;4990990;28;19933;-60
2022/02/06 15:52:36;;;;;;;;;;;;;;;;;;4992247;28;21009;-59
2022/02/06 15:55:02;;;;;;;;;;;;;;;;;;4994419;28;20302;-60
2022/02/06 15:57:27;;;;;;;;;;;;;;;;;;4986726;28;19936;-60
2022/02/06 15:59:52;;;;;;;;;;;;;;;;;;4993967;28;20282;-59
2022/02/06 16:02:18;;;;;;;;;;;;;;;;;;4994532;28;20052;-59
2022/02/06 16:04:43;;;;;;;;;;;;;;;;;;4995173;28;20393;-59
2022/02/06 16:07:09;;;;;;;;;;;;;;;;;;4995276;28;21657;-59
2022/02/06 16:09:35;;;;;;;;;;;;;;;;;;4986378;28;19925;-59
2022/02/06 16:12:06;;;;;;;;;;;;;;;;;;4994750;28;19975;-60
2022/02/06 16:14:31;;;;;;;;;;;;;;;;;;4993337;28;20499;-59
2022/02/06 16:16:57;;;;;;;;;;;;;;;;;;4994283;28;19943;-59
2022/02/06 16:19:22;;;;;;;;;;;;;;;;;;4985528;28;20434;-59
2022/02/06 16:21:48;;;;;;;;;;;;;;;;;;4993906;28;20247;-59
2022/02/06 16:24:13;;;;;;;;;;;;;;;;;;4995096;28;20563;-59
2022/02/06 16:26:39;;;;;;;;;;;;;;;;;;4994338;28;20361;-60
2022/02/06 16:29:04;;;;;;;;;;;;;;;;;;5001319;28;19937;-58
2022/02/06 16:31:30;;;;;;;;;;;;;;;;;;4993909;28;19979;-59
2022/02/06 16:33:56;;;;;;;;;;;;;;;;;;4995352;28;19983;-59
2022/02/06 16:36:21;;;;;;;;;;;;;;;;;;4985762;28;20442;-60
2022/02/06 16:38:46;;;;;;;;;;;;;;;;;;4993409;28;20067;-59
2022/02/06 16:41:12;;;;;;;;;;;;;;;;;;4971790;28;19984;-60
2022/02/06 16:43:37;;;;;;;;;;;;;;;;;;4973803;28;20234;-58
2022/02/06 16:46:03;;;;;;;;;;;;;;;;;;4975316;28;19973;-60
2022/02/06 16:48:30;;;;;;;;;;;;;;;;;;4974436;28;20402;-60
2022/02/06 16:50:55;;;;;;;;;;;;;;;;;;4974551;28;19981;-60
2022/02/06 16:53:20;;;;;;;;;;;;;;;;;;4997007;28;19959;-58
2022/02/06 16:55:47;;;;;;;;;;;;;;;;;;4995118;28;19929;-60
2022/02/06 16:58:12;;;;;;;;;;;;;;;;;;4992722;28;21653;-59
2022/02/06 17:00:38;;;;;;;;;;;;;;;;;;4992501;28;19971;-59
2022/02/06 17:03:03;;;;;;;;;;;;;;;;;;4993804;28;19930;-60
2022/02/06 17:05:29;;;;;;;;;;;;;;;;;;4992179;28;19925;-59
2022/02/06 17:07:55;;;;;;;;;;;;;;;;;;4994268;28;20085;-58
2022/02/06 17:10:21;;;;;;;;;;;;;;;;;;4993279;28;19977;-61
2022/02/06 17:12:46;;;;;;;;;;;;;;;;;;4993561;28;20001;-55
2022/02/06 17:15:12;;;;;;;;;;;;;;;;;;4992470;28;20440;-57
2022/02/06 17:17:37;;;;;;;;;;;;;;;;;;4990909;28;19968;-58
2022/02/06 17:20:03;;;;;;;;;;;;;;;;;;4991874;28;20016;-57
2022/02/06 17:22:28;;;;;;;;;;;;;;;;;;4992227;28;19925;-58
2022/02/06 17:24:54;;;;;;;;;;;;;;;;;;4992096;28;20374;-58
2022/02/06 17:27:22;;;;;;;;;;;;;;;;;;4991200;28;20350;-58
2022/02/06 17:29:47;;;;;;;;;;;;;;;;;;4991035;28;19934;-58
2022/02/06 17:32:13;;;;;;;;;;;;;;;;;;4997911;28;19921;-59
2022/02/06 17:34:38;;;;;;;;;;;;;;;;;;4991044;28;19925;-56
2022/02/06 17:37:04;;;;;;;;;;;;;;;;;;4991639;28;20020;-58
2022/02/06 17:39:30;;;;;;;;;;;;;;;;;;4991352;28;20454;-58
2022/02/06 17:41:55;;;;;;;;;;;;;;;;;;4999372;28;19932;-57
2022/02/06 17:44:21;;;;;;;;;;;;;;;;;;4992855;28;20350;-58
2022/02/06 17:46:50;;;;;;;;;;;;;;;;;;4993075;28;20012;-58
2022/02/06 17:49:15;;;;;;;;;;;;;;;;;;4991296;28;20425;-58
2022/02/06 17:51:41;;;;;;;;;;;;;;;;;;4994588;28;19957;-57
2022/02/06 17:54:09;;;;;;;;;;;;;;;;;;4971770;28;19961;-57
2022/02/06 17:56:37;;;;;;;;;;;;;;;;;;4970518;28;19972;-57
2022/02/06 17:59:02;;;;;;;;;;;;;;;;;;4970947;28;19957;-58
2022/02/06 18:01:28;;;;;;;;;;;;;;;;;;4970610;28;20025;-56
2022/02/06 18:03:53;;;;;;;;;;;;;;;;;;4966149;28;20208;-58
2022/02/06 18:06:18;;;;;;;;;;;;;;;;;;4971217;28;20748;-58
2022/02/06 18:08:44;;;;;;;;;;;;;;;;;;4990049;28;19927;-59
2022/02/06 18:11:12;;;;;;;;;;;;;;;;;;4993077;28;20239;-58
2022/02/06 18:13:38;;;;;;;;;;;;;;;;;;4992182;28;19932;-57
2022/02/06 18:16:03;;;;;;;;;;;;;;;;;;4993973;28;19969;-57
2022/02/06 18:18:29;;;;;;;;;;;;;;;;;;4992125;28;20017;-57
2022/02/06 18:20:55;;;;;;;;;;;;;;;;;;4992834;28;20039;-58
2022/02/06 18:23:20;;;;;;;;;;;;;;;;;;4991333;28;19929;-57
2022/02/06 18:25:45;;;;;;;;;;;;;;;;;;4990542;28;19968;-58
2022/02/06 18:28:11;;;;;;;;;;;;;;;;;;4991854;28;19975;-57
2022/02/06 18:30:36;;;;;;;;;;;;;;;;;;4991425;28;20463;-57
2022/02/06 18:33:02;;;;;;;;;;;;;;;;;;4991889;28;19926;-57
2022/02/06 18:35:27;;;;;;;;;;;;;;;;;;4990790;28;20256;-56
2022/02/06 18:37:53;;;;;;;;;;;;;;;;;;4990487;28;19926;-57
2022/02/06 18:40:18;;;;;;;;;;;;;;;;;;4988424;28;19932;-58
2022/02/06 18:42:44;;;;;;;;;;;;;;;;;;4989125;28;19953;-57
2022/02/06 18:45:10;;;;;;;;;;;;;;;;;;4990998;28;20021;-58
2022/02/06 18:47:36;;;;;;;;;;;;;;;;;;4988817;28;19933;-59
2022/02/06 18:50:02;;;;;;;;;;;;;;;;;;4991013;28;20051;-58
2022/02/06 18:52:27;;;;;;;;;;;;;;;;;;4989862;28;20098;-58
2022/02/06 18:54:55;;;;;;;;;;;;;;;;;;4989838;28;19930;-58
2022/02/06 18:57:21;;;;;;;;;;;;;;;;;;4982169;28;19926;-60
2022/02/06 18:59:46;;;;;;;;;;;;;;;;;;4989522;28;20034;-58